Terminal Aerodrome Forecast
Issued by NWS

Home | Current Version | Previous Version | Text Only | Print | Product List | Glossary On
Versions: 1 2 3 4 5 6 7 8 9 10 11 12 13 14 15 16
000
FTUS43 KMQT 240500
TAFSAW
TAF
KSAW 240520Z 2406/2506 18006KT P6SM SKC
     FM241600 19012G18KT P6SM BKN250
     FM250000 18006KT P6SM BKN250
      AMD LTD TO CLD VIS AND WIND TIL 241000=

USA.gov is the U.S. government's official web portal to all federal, state and local government web resources and services.